• Join FlightAware (Why Join?)
  • Login
  • US Flag 
11:12PM EDT


 

Airport Tracker/Info


-or-


 

Live Flight TrackerFlight Track Log ✈ CSN3519 ✈ 24-May-2013 ✈ ZGGG / CAN - ZLJN / JNG

Flight Track Log - Related Links

Times and Time Zones

All times are in EDT time to prevent confusion due to time zone crossing. See the CSN3519 flight status page for this flight to view local times or setup timezone preferences in your user account.

Time Position Orientation Groundspeed Altitude Reporting Facility
EDT Latitude Longitude Course Direction KTS MPH feet Rate Location/Type
07:48PM 23.3470 113.2660 209° Southwest 181 208 2,300  Level FlightAware
07:48PM 23.3380 113.2600 211° Southwest 193 222 2,600 1,860 Climbing FlightAware
07:49PM 23.3090 113.2420 210° Southwest 230 265 3,700 2,760 Climbing FlightAware
07:49PM 23.2850 113.2270 210° Southwest 226 260 5,400 3,720 Climbing FlightAware
07:50PM 23.2730 113.2170 217° Southwest 226 260 6,200 2,760 Climbing FlightAware
07:50PM 23.2670 113.1990 250° West 237 273 6,800 1,200 Climbing FlightAware
07:50PM 23.2770 113.1650 288° West 241 277 7,100 420 Climbing FlightAware
07:51PM 23.2810 113.1550 294° West 240 276 7,100 -180 Level FlightAware
07:51PM 23.2940 113.1200 292° West 241 277 7,000 -120 Descending FlightAware
07:52PM 23.3060 113.0870 292° West 241 277 7,000  Level FlightAware
07:52PM 23.3210 113.0630 304° West 247 284 7,000  Level FlightAware
07:52PM 23.3380 113.0560 339° North 252 290 7,000 300 Level FlightAware
07:53PM 23.3680 113.0620 10° North 284 327 7,200 1,320 Climbing FlightAware
07:53PM 23.3890 113.0660 10° North 295 339 7,900 3,180 Climbing FlightAware
07:53PM 23.4300 113.0750 11° North 295 339 9,600 2,820 Climbing FlightAware
07:54PM 23.4850 113.0860 10° North 318 366 11,200 2,520 Climbing FlightAware
07:55PM 23.5510 113.0990 10° North 333 383 13,200 2,520 Climbing FlightAware
07:56PM 23.6140 113.1120 11° North 346 398 14,800 2,280 Climbing FlightAware
07:56PM 23.6880 113.1280 11° North 356 410 16,500 1,380 Climbing FlightAware
07:57PM 23.7430 113.1400 11° North 385 443 16,700 120 Climbing FlightAware
07:58PM 23.8250 113.1570 11° North 383 441 16,700  Level FlightAware
07:58PM 23.9030 113.1730 11° North 385 443 16,700 840 Level FlightAware
07:59PM 23.9750 113.1840 North 390 449 17,900 2,100 Climbing FlightAware
08:00PM 24.0460 113.1940 North 387 445 19,500 1,860 Climbing FlightAware
08:00PM 24.1300 113.2060 North 402 463 20,600 840 Climbing FlightAware
08:01PM 24.2000 113.2160 North 402 463 20,700 180 Climbing FlightAware
08:02PM 24.2880 113.2290 North 421 484 20,900 960 Climbing FlightAware
08:03PM 24.3650 113.2400 North 426 490 22,100 1,740 Climbing FlightAware
08:03PM 24.4570 113.2540 North 434 499 23,400 1,860 Climbing FlightAware
08:04PM 24.5310 113.2650 North 431 496 24,800 2,160 Climbing FlightAware
08:05PM 24.6150 113.2770 North 426 490 26,300 1,680 Climbing FlightAware
08:05PM 24.7010 113.2900 North 435 501 27,200 1,320 Climbing FlightAware
08:06PM 24.7810 113.3020 North 439 505 28,200 1,440 Climbing FlightAware
08:07PM 24.8730 113.3150 North 443 510 29,300 1,320 Climbing FlightAware
08:07PM 24.9580 113.3280 North 450 518 30,100 1,320 Climbing FlightAware
08:08PM 25.0410 113.3400 North 451 519 31,100 1,620 Climbing FlightAware
08:09PM 25.1340 113.3540 North 447 514 32,400 1,380 Climbing FlightAware
08:10PM 25.2140 113.3660 North 440 506 33,100 480 Climbing FlightAware
08:10PM 25.2950 113.3780 North 441 507 33,100  Level FlightAware
08:11PM 25.3760 113.3900 North 441 507 33,100  Level FlightAware
08:12PM 25.4570 113.4010 North 441 507 33,100  Level FlightAware
08:12PM 25.5650 113.4170 North 445 512 33,100  Level FlightAware
08:13PM 25.5960 113.4420 36° Northeast 452 520 33,100  Level FlightAware
08:13PM 25.6750 113.4820 25° Northeast 453 521 33,100  Level FlightAware
08:14PM 25.7410 113.5140 24° Northeast 453 521 33,100  Level FlightAware
08:15PM 25.8060 113.5460 24° Northeast 453 521 33,100  Level FlightAware
08:16PM 25.8870 113.5860 24° Northeast 453 521 33,100  Level FlightAware
08:16PM 25.9520 113.6180 24° Northeast 453 521 33,100  Level FlightAware
08:17PM 26.0170 113.6510 25° Northeast 453 521 33,100  Level FlightAware
08:18PM 26.0820 113.6830 24° Northeast 453 521 33,100  Level FlightAware
08:18PM 26.1470 113.7150 24° Northeast 453 521 33,100  Level FlightAware
08:19PM 26.2290 113.7560 24° Northeast 453 521 33,100  Level FlightAware
08:20PM 26.2940 113.7880 24° Northeast 453 521 33,100  Level FlightAware
08:20PM 26.3590 113.8200 24° Northeast 453 521 33,100  Level FlightAware
08:21PM 26.4240 113.8530 24° Northeast 453 521 33,100  Level FlightAware
08:22PM 26.5050 113.8930 24° Northeast 453 521 33,100  Level FlightAware
08:23PM 26.5710 113.9250 23° Northeast 453 521 33,100  Level FlightAware
08:25PM 26.7745 113.9767 13° North  Level Estimated
08:26PM 26.8836 114.0045 13° North  Level Estimated
08:27PM 26.9926 114.0324 13° North  Level Estimated
08:28PM 27.1016 114.0603 13° North  Level Estimated
08:29PM 27.2106 114.0882 13° North  Level Estimated
08:30PM 27.3196 114.1162 13° North  Level Estimated
08:31PM 27.4286 114.1443 13° North  Level Estimated
08:32PM 27.5376 114.1724 13° North  Level Estimated
08:33PM 27.6466 114.2006 13° North  Level Estimated
08:34PM 27.7556 114.2288 13° North  Level Estimated
08:35PM 27.8646 114.2571 13° North  Level Estimated
08:36PM 27.9736 114.2855 13° North  Level Estimated
08:37PM 28.0825 114.3139 13° North  Level Estimated
08:38PM 28.1915 114.3423 13° North  Level Estimated
08:39PM 28.3004 114.3708 13° North  Level Estimated
08:40PM 28.4094 114.3994 13° North  Level Estimated
08:41PM 28.5183 114.4281 13° North  Level Estimated
08:42PM 28.6273 114.4567 13° North  Level Estimated
08:43PM 28.7362 114.4855 13° North  Level Estimated
08:44PM 28.8451 114.5143 13° North  Level Estimated
08:45PM 28.9541 114.5432 13° North  Level Estimated
08:46PM 29.0630 114.5721 13° North  Level Estimated
08:47PM 29.1719 114.6011 13° North  Level Estimated
08:48PM 29.2808 114.6302 13° North  Level Estimated
08:49PM 29.3897 114.6593 13° North  Level Estimated
08:50PM 29.4986 114.6885 13° North  Level Estimated
08:51PM 29.6074 114.7177 13° North  Level Estimated
08:52PM 29.7163 114.7470 13° North  Level Estimated
08:53PM 29.8252 114.7764 13° North  Level Estimated
08:54PM 29.9340 114.8058 13° North  Level Estimated
08:55PM 30.0429 114.8354 13° North  Level Estimated
08:56PM 30.1518 114.8649 13° North  Level Estimated
08:57PM 30.2606 114.8945 13° North  Level Estimated
08:58PM 30.3694 114.9242 13° North  Level Estimated
08:59PM 30.4783 114.9540 13° North  Level Estimated
09:00PM 30.5871 114.9838 13° North  Level Estimated
09:01PM 30.6959 115.0137 13° North  Level Estimated
09:02PM 30.8047 115.0437 13° North  Level Estimated
09:03PM 30.9135 115.0737 13° North  Level Estimated
09:04PM 31.0223 115.1038 13° North  Level Estimated
09:05PM 31.1311 115.1340 13° North  Level Estimated
09:06PM 31.2399 115.1642 13° North  Level Estimated
09:07PM 31.3487 115.1945 13° North  Level Estimated
09:08PM 31.4574 115.2249 13° North  Level Estimated
09:09PM 31.5662 115.2554 13° North  Level Estimated
09:10PM 31.6749 115.2859 13° North  Level Estimated
09:11PM 31.7837 115.3165 13° North  Level Estimated
09:12PM 31.8924 115.3472 13° North  Level Estimated
09:13PM 32.0012 115.3779 13° North  Level Estimated
09:14PM 32.1099 115.4087 13° North  Level Estimated
09:15PM 32.2186 115.4396 14° North  Level Estimated
09:16PM 32.3273 115.4705 14° North  Level Estimated
09:17PM 32.4360 115.5016 14° North  Level Estimated
09:18PM 32.5447 115.5327 14° North  Level Estimated
09:19PM 32.6534 115.5639 14° North  Level Estimated
09:20PM 32.7621 115.5951 14° North  Level Estimated
09:21PM 32.8707 115.6264 14° North  Level Estimated
09:22PM 32.9794 115.6579 14° North  Level Estimated
09:23PM 33.0881 115.6893 14° North  Level Estimated
09:24PM 33.1967 115.7209 14° North  Level Estimated
09:25PM 33.3053 115.7526 14° North  Level Estimated
09:26PM 33.4140 115.7843 14° North  Level Estimated
09:27PM 33.5226 115.8161 14° North  Level Estimated
09:28PM 33.6312 115.8480 14° North  Level Estimated
09:29PM 33.7398 115.8799 14° North  Level Estimated
09:30PM 33.8484 115.9120 14° North  Level Estimated
09:31PM 33.9570 115.9441 14° North  Level Estimated
09:32PM 34.0656 115.9763 14° North  Level Estimated
09:33PM 34.1741 116.0086 14° North  Level Estimated
09:34PM 34.2827 116.0410 14° North  Level Estimated
09:35PM 34.3913 116.0734 14° North  Level Estimated
09:36PM 34.4998 116.1060 14° North  Level Estimated
09:37PM 34.6084 116.1386 14° North  Level Estimated
09:38PM 34.7169 116.1713 14° North  Level Estimated
09:39PM 34.8254 116.2041 14° North  Level Estimated
09:40PM 34.9339 116.2370 14° North  Level Estimated
09:41PM 35.0424 116.2700 14° North  Level Estimated
09:42PM 35.1509 116.3030 14° North  Level Estimated
09:43PM 35.2594 116.3362 14° North  Level Estimated
09:44PM 35.2928 116.3464 14° North  Level Estimated
09:45PM 35.2928 116.3464 202° Southwest  Level Estimated
09:46PM 35.2928 116.3464 202° Southwest  Level Estimated
09:47PM 35.2928 116.3464 202° Southwest  Level Estimated
09:48PM 35.2928 116.3464 202° Southwest  Level Estimated
09:49PM 35.2928 116.3464 202° Southwest  Level Estimated
09:50PM 35.2928 116.3464 202° Southwest  Level Estimated
09:51PM 35.2928 116.3464 202° Southwest  Level Estimated